createdAt,value
2022-08-27T00:01:16.391Z,26.10
2022-08-27T00:03:18.594Z,26.10
2022-08-27T00:05:20.993Z,26.10
2022-08-27T00:07:22.717Z,26.10
2022-08-27T00:09:27.183Z,26.10
2022-08-27T00:11:29.588Z,26.10
2022-08-27T00:13:31.307Z,26.10
2022-08-27T00:15:33.516Z,26.10
2022-08-27T00:17:36.113Z,26.10
2022-08-27T00:19:37.862Z,26.10
2022-08-27T00:21:39.683Z,26.10
2022-08-27T00:23:41.445Z,26.10
2022-08-27T00:25:43.103Z,26.20
2022-08-27T00:27:45.314Z,26.20
2022-08-27T00:29:48.228Z,26.20
2022-08-27T00:31:53.367Z,26.20
2022-08-27T00:33:56.606Z,26.20
2022-08-27T00:35:58.548Z,26.10
2022-08-27T00:38:00.717Z,26.20
2022-08-27T00:40:03.698Z,26.20
2022-08-27T00:42:06.300Z,26.10
2022-08-27T00:44:08.104Z,26.10
2022-08-27T00:46:19.243Z,26.20
2022-08-27T00:48:24.251Z,26.20
2022-08-27T00:50:40.779Z,26.20
2022-08-27T00:52:48.687Z,26.20
2022-08-27T00:54:58.803Z,26.20
2022-08-27T00:57:02.798Z,26.20
2022-08-27T00:59:04.777Z,26.20
2022-08-27T01:01:09.258Z,26.20
2022-08-27T01:03:11.040Z,26.20
2022-08-27T01:05:16.910Z,26.20
2022-08-27T01:07:19.790Z,26.20
2022-08-27T01:09:21.914Z,26.20
2022-08-27T01:11:24.908Z,26.20
2022-08-27T01:13:58.901Z,26.20
2022-08-27T01:15:58.650Z,26.20
2022-08-27T01:18:04.179Z,26.20
2022-08-27T01:20:11.327Z,26.20
2022-08-27T01:22:37.396Z,26.20
2022-08-27T01:24:46.675Z,26.20
2022-08-27T01:26:50.480Z,26.30
2022-08-27T01:28:53.049Z,26.20
2022-08-27T01:30:54.740Z,26.30
2022-08-27T01:32:56.401Z,26.20
2022-08-27T01:34:58.996Z,26.30
2022-08-27T01:37:00.738Z,26.30
2022-08-27T01:39:02.494Z,26.30
2022-08-27T01:41:04.323Z,26.20
2022-08-27T01:43:06.248Z,26.20
2022-08-27T01:45:19.804Z,26.20
2022-08-27T01:47:23.848Z,26.20
2022-08-27T01:49:33.007Z,26.20
2022-08-27T01:51:34.649Z,26.20
2022-08-27T01:53:36.494Z,26.20
2022-08-27T01:55:39.216Z,26.20
2022-08-27T01:57:43.241Z,26.20
2022-08-27T01:59:44.943Z,26.20
2022-08-27T02:01:46.743Z,26.20
2022-08-27T02:03:48.544Z,26.20
2022-08-27T02:05:50.399Z,26.30
2022-08-27T02:07:52.258Z,26.30
2022-08-27T02:09:53.968Z,26.30
2022-08-27T02:11:55.721Z,26.30
2022-08-27T02:13:57.395Z,26.30
2022-08-27T02:15:59.175Z,26.20
2022-08-27T02:18:01.884Z,26.20
2022-08-27T02:20:05.256Z,26.10
2022-08-27T02:22:07.056Z,26.10
2022-08-27T02:24:09.009Z,26.20
2022-08-27T02:26:10.912Z,26.20
2022-08-27T02:28:12.655Z,26.20
2022-08-27T02:30:17.829Z,26.20
2022-08-27T02:32:31.201Z,26.20
2022-08-27T02:34:34.009Z,26.20
2022-08-27T02:36:37.256Z,26.20
2022-08-27T02:38:39.245Z,26.20
2022-08-27T02:40:40.942Z,26.20
2022-08-27T02:42:43.197Z,26.20
2022-08-27T02:44:45.006Z,26.20
2022-08-27T02:46:46.737Z,26.20
2022-08-27T02:48:51.713Z,26.20
2022-08-27T02:50:54.393Z,26.20
2022-08-27T02:52:56.188Z,26.20
2022-08-27T02:54:58.944Z,26.20
2022-08-27T02:57:00.816Z,26.20
2022-08-27T02:59:02.472Z,26.30
2022-08-27T03:01:05.030Z,26.30
2022-08-27T03:03:06.742Z,26.20
2022-08-27T03:05:09.128Z,26.30
2022-08-27T03:07:14.966Z,26.30
2022-08-27T03:09:21.148Z,26.30
2022-08-27T03:11:23.556Z,26.20
2022-08-27T03:13:26.147Z,26.20
2022-08-27T03:15:28.105Z,26.20
2022-08-27T03:17:48.160Z,26.20
2022-08-27T03:19:50.615Z,26.30
2022-08-27T03:21:54.494Z,26.20
2022-08-27T03:23:56.933Z,26.30
2022-08-27T03:26:02.747Z,26.20
2022-08-27T03:28:04.861Z,26.20
2022-08-27T03:30:15.910Z,26.20
2022-08-27T03:32:17.622Z,26.20
2022-08-27T03:34:19.629Z,26.20
2022-08-27T03:36:21.867Z,26.20
2022-08-27T03:38:23.889Z,26.10
2022-08-27T03:40:25.596Z,26.20
2022-08-27T03:42:27.816Z,26.10
2022-08-27T03:44:29.881Z,26.10
2022-08-27T03:46:31.579Z,26.10
2022-08-27T03:48:34.087Z,26.10
2022-08-27T03:50:42.860Z,26.10
2022-08-27T03:52:44.583Z,26.10
2022-08-27T03:54:46.271Z,26.10
2022-08-27T03:56:48.081Z,26.10
2022-08-27T03:58:50.003Z,26.10
2022-08-27T04:00:51.732Z,26.10
2022-08-27T04:02:54.818Z,26.10
2022-08-27T04:04:57.799Z,26.10
2022-08-27T04:06:59.643Z,26.10
2022-08-27T04:09:01.767Z,26.10
2022-08-27T04:11:07.327Z,26.10
2022-08-27T04:13:09.108Z,26.10
2022-08-27T04:15:12.889Z,26.10
2022-08-27T04:17:14.667Z,26.10
2022-08-27T04:19:16.365Z,26.10
2022-08-27T04:21:18.053Z,26.10
2022-08-27T04:23:20.047Z,26.00
2022-08-27T04:25:21.718Z,26.00
2022-08-27T04:27:25.568Z,26.10
2022-08-27T04:29:27.643Z,26.10
2022-08-27T04:31:29.382Z,26.10
2022-08-27T04:33:32.312Z,26.10
2022-08-27T04:35:34.479Z,26.10
2022-08-27T04:37:36.139Z,26.10
2022-08-27T04:39:38.042Z,26.00
2022-08-27T04:41:39.791Z,26.00
2022-08-27T04:43:41.451Z,26.00
2022-08-27T04:45:47.799Z,26.00
2022-08-27T04:47:49.468Z,26.00
2022-08-27T04:49:51.126Z,25.90
2022-08-27T04:51:53.446Z,25.90
2022-08-27T04:53:56.153Z,25.90
2022-08-27T04:55:57.829Z,25.90
2022-08-27T04:57:59.651Z,26.00
2022-08-27T05:00:01.399Z,26.00
2022-08-27T05:02:05.566Z,26.00
2022-08-27T05:04:08.212Z,26.10
2022-08-27T05:06:10.408Z,26.20
2022-08-27T05:08:13.036Z,26.20
2022-08-27T05:10:14.683Z,26.20
2022-08-27T05:12:16.454Z,26.20
2022-08-27T05:14:19.716Z,26.20
2022-08-27T05:16:23.159Z,26.20
2022-08-27T05:18:24.997Z,26.20
2022-08-27T05:20:27.635Z,26.30
2022-08-27T05:22:29.401Z,26.30
2022-08-27T05:24:32.321Z,26.30
2022-08-27T05:26:36.108Z,26.30
2022-08-27T05:28:37.905Z,26.30
2022-08-27T05:30:41.992Z,26.30
2022-08-27T05:32:44.249Z,26.30
2022-08-27T05:34:45.938Z,26.30
2022-08-27T05:36:48.720Z,26.30
2022-08-27T05:38:51.380Z,26.40
2022-08-27T05:41:14.546Z,26.40
2022-08-27T05:43:18.003Z,26.40
2022-08-27T05:45:19.641Z,26.50
2022-08-27T05:47:21.299Z,26.50
2022-08-27T05:49:23.017Z,26.50
2022-08-27T05:51:31.212Z,26.50
2022-08-27T05:53:32.871Z,26.50
2022-08-27T05:55:43.356Z,26.50
2022-08-27T05:57:45.017Z,26.50
2022-08-27T06:00:05.159Z,26.50
2022-08-27T06:02:07.743Z,26.60
2022-08-27T06:04:10.662Z,26.50
2022-08-27T06:06:13.979Z,26.60
2022-08-27T06:08:15.656Z,26.50
2022-08-27T06:10:17.348Z,26.50
2022-08-27T06:12:18.997Z,26.60
2022-08-27T06:14:29.105Z,26.50
2022-08-27T06:16:31.149Z,26.50
2022-08-27T06:18:38.365Z,26.50
2022-08-27T06:20:40.034Z,26.50
2022-08-27T06:22:45.471Z,26.50
2022-08-27T06:24:47.273Z,26.60
2022-08-27T06:26:48.921Z,26.60
2022-08-27T06:28:50.834Z,26.60
2022-08-27T06:30:52.610Z,26.60
2022-08-27T06:32:54.511Z,26.50
2022-08-27T06:34:56.255Z,26.50
2022-08-27T06:36:57.899Z,26.50
2022-08-27T06:38:59.843Z,26.40
2022-08-27T06:41:04.817Z,26.40
2022-08-27T06:43:06.480Z,26.40
2022-08-27T06:45:09.071Z,26.40
2022-08-27T06:47:11.472Z,26.30
2022-08-27T06:49:13.324Z,26.30
2022-08-27T06:51:20.188Z,26.20
2022-08-27T06:53:24.429Z,26.20
2022-08-27T06:55:26.317Z,26.10
2022-08-27T06:57:28.672Z,26.10
2022-08-27T06:59:31.415Z,26.10
2022-08-27T07:01:36.565Z,26.00
2022-08-27T07:03:38.271Z,26.00
2022-08-27T07:05:40.884Z,26.00
2022-08-27T07:07:46.648Z,26.00
2022-08-27T07:09:51.196Z,25.90
2022-08-27T07:11:52.862Z,26.00
2022-08-27T07:13:55.137Z,25.90
2022-08-27T07:15:57.324Z,25.90
2022-08-27T07:18:01.001Z,25.90
2022-08-27T07:20:04.028Z,25.90
2022-08-27T07:22:05.863Z,25.90
2022-08-27T07:24:09.054Z,25.90
2022-08-27T07:26:12.573Z,25.90
2022-08-27T07:28:14.875Z,25.90
2022-08-27T07:30:18.055Z,25.80
2022-08-27T07:32:19.823Z,25.80
2022-08-27T07:34:21.508Z,25.80
2022-08-27T07:36:23.914Z,25.90
2022-08-27T07:38:25.654Z,25.90
2022-08-27T07:40:27.398Z,25.90
2022-08-27T07:42:48.318Z,26.00
2022-08-27T07:44:50.141Z,26.10
2022-08-27T07:46:51.807Z,26.10
2022-08-27T07:48:55.417Z,26.10
2022-08-27T07:50:57.111Z,26.20
2022-08-27T07:52:58.773Z,26.10
2022-08-27T07:55:01.282Z,26.10
2022-08-27T07:57:03.040Z,26.10
2022-08-27T07:59:04.714Z,26.10
2022-08-27T08:01:07.166Z,26.00
2022-08-27T08:03:09.269Z,26.10
2022-08-27T08:05:12.525Z,26.10
2022-08-27T08:07:14.347Z,26.10
2022-08-27T08:09:16.136Z,26.10
2022-08-27T08:11:18.673Z,26.00
2022-08-27T08:13:20.316Z,26.00
2022-08-27T08:15:22.077Z,26.00
2022-08-27T08:17:25.634Z,26.00
2022-08-27T08:19:27.590Z,26.00
2022-08-27T08:21:29.337Z,26.00
2022-08-27T08:23:32.855Z,26.00
2022-08-27T08:25:35.527Z,26.00
2022-08-27T08:27:41.864Z,26.00
2022-08-27T08:29:43.528Z,25.90
2022-08-27T08:31:49.913Z,26.00
2022-08-27T08:33:52.148Z,25.90
2022-08-27T08:35:53.938Z,26.00
2022-08-27T08:37:55.595Z,26.00
2022-08-27T08:39:57.426Z,26.00
2022-08-27T08:42:01.382Z,26.00
2022-08-27T08:44:26.527Z,26.00
2022-08-27T08:46:48.561Z,26.00
2022-08-27T08:48:55.420Z,26.00
2022-08-27T08:51:10.104Z,26.00
2022-08-27T08:53:19.997Z,25.90
2022-08-27T08:55:45.834Z,26.00
2022-08-27T08:58:13.335Z,25.90
2022-08-27T09:00:15.317Z,26.00
2022-08-27T09:02:18.101Z,25.90
2022-08-27T09:04:19.784Z,25.90
2022-08-27T09:06:38.788Z,25.90
2022-08-27T09:08:43.176Z,25.90
2022-08-27T09:10:56.461Z,25.80
2022-08-27T09:13:02.974Z,25.80
2022-08-27T09:15:15.128Z,25.80
2022-08-27T09:17:16.995Z,25.90
2022-08-27T09:19:24.068Z,25.90
2022-08-27T09:21:49.460Z,25.90
2022-08-27T09:23:58.947Z,25.90
2022-08-27T09:26:00.628Z,25.80
2022-08-27T09:28:27.454Z,25.80
2022-08-27T09:30:32.219Z,25.80
2022-08-27T09:32:34.891Z,25.80
2022-08-27T09:34:39.235Z,25.80
2022-08-27T09:37:05.020Z,25.80
2022-08-27T09:39:08.095Z,25.80
2022-08-27T09:41:17.653Z,25.80
2022-08-27T09:43:23.285Z,25.80
2022-08-27T09:45:28.161Z,25.80
2022-08-27T09:47:29.912Z,25.80
2022-08-27T09:49:34.519Z,25.80
2022-08-27T09:51:40.834Z,25.80
2022-08-27T09:53:52.760Z,25.80
2022-08-27T09:56:01.648Z,25.80
2022-08-27T09:58:08.030Z,25.80
2022-08-27T10:00:16.764Z,25.80
2022-08-27T10:02:21.913Z,25.80
2022-08-27T10:04:51.053Z,25.80
2022-08-27T10:06:53.566Z,25.80
2022-08-27T10:09:06.505Z,25.80
2022-08-27T10:11:20.604Z,25.80
2022-08-27T10:13:45.053Z,25.80
2022-08-27T10:16:22.986Z,25.80
2022-08-27T10:18:53.370Z,25.80
2022-08-27T10:21:07.960Z,25.80
2022-08-27T10:23:33.111Z,25.80
2022-08-27T10:25:52.895Z,25.80
2022-08-27T10:28:09.506Z,25.80
2022-08-27T10:30:16.023Z,25.90
2022-08-27T10:32:34.005Z,25.90
2022-08-27T10:35:05.656Z,25.90
2022-08-27T10:37:22.884Z,25.90
2022-08-27T10:39:37.727Z,25.90
2022-08-27T10:42:05.182Z,25.90
2022-08-27T10:44:41.156Z,25.90
2022-08-27T10:47:03.067Z,25.90
2022-08-27T10:49:07.447Z,25.90
2022-08-27T10:51:41.424Z,25.90
2022-08-27T10:54:09.732Z,25.90
2022-08-27T10:56:35.165Z,25.90
2022-08-27T10:58:56.813Z,26.00
2022-08-27T11:01:16.426Z,26.00
2022-08-27T11:03:44.592Z,26.00
2022-08-27T11:05:49.399Z,26.00
2022-08-27T11:08:06.432Z,26.00
2022-08-27T11:10:40.312Z,26.00
2022-08-27T11:12:46.682Z,26.00
2022-08-27T11:15:15.489Z,26.00
2022-08-27T11:17:41.980Z,26.00
2022-08-27T11:19:54.587Z,25.90
2022-08-27T11:22:26.203Z,26.00
2022-08-27T11:24:48.686Z,26.00
2022-08-27T11:26:54.176Z,26.00
2022-08-27T11:29:01.515Z,25.90
2022-08-27T11:31:18.044Z,26.00
2022-08-27T11:33:35.266Z,26.00
2022-08-27T11:36:11.915Z,26.00
2022-08-27T11:38:45.674Z,26.00
2022-08-27T11:41:14.545Z,26.00
2022-08-27T11:43:28.556Z,26.00
2022-08-27T11:45:40.508Z,25.90
2022-08-27T11:47:55.371Z,25.90
2022-08-27T11:49:59.761Z,26.00
2022-08-27T11:52:05.077Z,26.00
2022-08-27T11:54:22.458Z,25.90
2022-08-27T11:56:30.141Z,26.00
2022-08-27T11:58:34.593Z,25.90
2022-08-27T12:00:55.648Z,25.90
2022-08-27T12:03:02.886Z,25.90
2022-08-27T12:05:24.385Z,26.00
2022-08-27T12:07:33.311Z,26.00
2022-08-27T12:10:09.348Z,26.00
2022-08-27T12:12:22.922Z,25.90
2022-08-27T12:14:50.651Z,25.80
2022-08-27T12:17:28.682Z,25.80
2022-08-27T12:19:48.080Z,25.60
2022-08-27T12:22:02.186Z,25.60
2022-08-27T12:24:09.824Z,25.50
2022-08-27T12:26:26.376Z,25.50
2022-08-27T12:28:28.414Z,25.50
2022-08-27T12:30:49.167Z,25.50
2022-08-27T12:32:52.506Z,25.50
2022-08-27T12:35:20.260Z,25.50
2022-08-27T12:37:27.446Z,25.60
2022-08-27T12:39:33.984Z,25.60
2022-08-27T12:41:44.171Z,25.60
2022-08-27T12:43:46.507Z,25.60
2022-08-27T12:45:52.563Z,25.70
2022-08-27T12:47:55.725Z,25.60
2022-08-27T12:49:59.889Z,25.60
2022-08-27T12:52:12.113Z,25.60
2022-08-27T12:54:32.524Z,25.50
2022-08-27T12:56:58.694Z,25.50
2022-08-27T12:59:26.119Z,25.50
2022-08-27T13:01:43.462Z,25.60
2022-08-27T13:03:49.752Z,25.60
2022-08-27T13:05:56.657Z,25.60
2022-08-27T13:07:58.867Z,25.60
2022-08-27T13:10:15.114Z,25.60
2022-08-27T13:12:18.822Z,25.60
2022-08-27T13:14:22.306Z,25.60
2022-08-27T13:16:25.106Z,25.50
2022-08-27T13:18:29.501Z,25.50
2022-08-27T13:20:34.830Z,25.50
2022-08-27T13:22:39.441Z,25.50
2022-08-27T13:24:49.835Z,25.50
2022-08-27T13:26:53.562Z,25.50
2022-08-27T13:29:01.239Z,25.50
2022-08-27T13:31:07.142Z,25.50
2022-08-27T13:33:27.709Z,25.60
2022-08-27T13:35:32.337Z,25.60
2022-08-27T13:37:41.355Z,25.60
2022-08-27T13:39:43.847Z,25.70
2022-08-27T13:41:49.181Z,25.70
2022-08-27T13:43:50.944Z,25.70
2022-08-27T13:45:59.575Z,25.70
2022-08-27T13:48:04.772Z,25.70
2022-08-27T13:50:12.384Z,25.70
2022-08-27T13:52:27.205Z,25.70
2022-08-27T13:54:30.781Z,25.70
2022-08-27T13:56:36.936Z,25.80
2022-08-27T13:58:38.654Z,25.80
2022-08-27T14:00:40.592Z,25.80
2022-08-27T14:02:55.513Z,25.80
2022-08-27T14:05:09.846Z,25.80
2022-08-27T14:07:14.265Z,25.80
2022-08-27T14:09:22.711Z,25.80
2022-08-27T14:11:27.321Z,25.70
2022-08-27T14:13:37.543Z,25.80
2022-08-27T14:15:44.439Z,25.70
2022-08-27T14:17:47.427Z,25.80
2022-08-27T14:19:50.185Z,25.80
2022-08-27T14:21:52.390Z,25.90
2022-08-27T14:23:54.143Z,25.90
2022-08-27T14:25:59.012Z,26.00
2022-08-27T14:28:00.883Z,26.00
2022-08-27T14:30:03.024Z,26.00
2022-08-27T14:32:07.525Z,26.00
2022-08-27T14:34:09.338Z,26.00
2022-08-27T14:36:11.402Z,25.90
2022-08-27T14:38:14.807Z,25.90
2022-08-27T14:40:16.575Z,25.90
2022-08-27T14:42:18.573Z,26.00
2022-08-27T14:44:21.353Z,26.00
2022-08-27T14:46:26.944Z,26.00
2022-08-27T14:48:32.441Z,26.00
2022-08-27T14:50:34.163Z,26.10
2022-08-27T14:52:36.359Z,26.00
2022-08-27T14:54:38.980Z,26.00
2022-08-27T14:56:40.703Z,26.00
2022-08-27T14:58:42.517Z,26.00
2022-08-27T15:00:44.333Z,26.00
2022-08-27T15:02:48.811Z,26.10
2022-08-27T15:04:53.128Z,26.10
2022-08-27T15:06:55.390Z,26.10
2022-08-27T15:08:57.208Z,26.10
2022-08-27T15:10:59.034Z,26.10
2022-08-27T15:13:00.724Z,26.10
2022-08-27T15:15:03.072Z,26.10
2022-08-27T15:17:10.975Z,26.10
2022-08-27T15:19:29.929Z,26.10
2022-08-27T15:21:31.641Z,26.10
2022-08-27T15:23:33.355Z,26.00
2022-08-27T15:25:35.290Z,26.10
2022-08-27T15:27:39.113Z,26.00
2022-08-27T15:29:41.530Z,26.00
2022-08-27T15:31:43.721Z,26.10
2022-08-27T15:33:45.662Z,26.10
2022-08-27T15:35:47.397Z,26.00
2022-08-27T15:37:49.327Z,26.00
2022-08-27T15:39:51.099Z,26.10
2022-08-27T15:42:08.119Z,26.10
2022-08-27T15:44:09.904Z,26.10
2022-08-27T15:46:14.040Z,26.10
2022-08-27T15:48:15.893Z,26.10
2022-08-27T15:50:17.848Z,26.10
2022-08-27T15:52:21.686Z,26.10
2022-08-27T15:54:23.993Z,26.10
2022-08-27T15:56:26.441Z,26.20
2022-08-27T15:58:29.001Z,26.20
2022-08-27T16:00:33.655Z,26.20
2022-08-27T16:02:35.430Z,26.10
2022-08-27T16:04:37.183Z,26.20
2022-08-27T16:06:39.107Z,26.30
2022-08-27T16:08:42.311Z,26.30
2022-08-27T16:10:44.008Z,26.30
2022-08-27T16:12:46.182Z,26.30
2022-08-27T16:14:48.036Z,26.30
2022-08-27T16:16:50.456Z,26.30
2022-08-27T16:18:52.628Z,26.30
2022-08-27T16:20:56.551Z,26.40
2022-08-27T16:22:58.436Z,26.40
2022-08-27T16:25:00.364Z,26.40
2022-08-27T16:27:02.170Z,26.40
2022-08-27T16:29:04.896Z,26.40
2022-08-27T16:31:06.638Z,26.40
2022-08-27T16:33:14.292Z,26.40
2022-08-27T16:35:17.126Z,26.40
2022-08-27T16:37:18.851Z,26.40
2022-08-27T16:39:20.570Z,26.50
2022-08-27T16:41:22.935Z,26.50
2022-08-27T16:43:26.982Z,26.50
2022-08-27T16:45:28.663Z,26.50
2022-08-27T16:47:30.379Z,26.50
2022-08-27T16:49:50.955Z,26.50
2022-08-27T16:51:52.712Z,26.60
2022-08-27T16:53:54.447Z,26.60
2022-08-27T16:55:56.117Z,26.60
2022-08-27T16:57:57.979Z,26.60
2022-08-27T16:59:59.697Z,26.60
2022-08-27T17:02:02.170Z,26.60
2022-08-27T17:04:09.820Z,26.60
2022-08-27T17:06:15.680Z,26.60
2022-08-27T17:08:21.564Z,26.60
2022-08-27T17:10:35.080Z,26.60
2022-08-27T17:12:36.768Z,26.50
2022-08-27T17:14:38.443Z,26.50
2022-08-27T17:16:43.356Z,26.50
2022-08-27T17:18:47.156Z,26.50
2022-08-27T17:20:50.363Z,26.50
2022-08-27T17:22:52.307Z,26.50
2022-08-27T17:24:54.238Z,26.50
2022-08-27T17:26:55.958Z,26.60
2022-08-27T17:28:58.264Z,26.60
2022-08-27T17:31:01.966Z,26.60
2022-08-27T17:33:03.815Z,26.60
2022-08-27T17:35:07.960Z,26.60
2022-08-27T17:37:10.027Z,26.60
2022-08-27T17:39:13.263Z,26.60
2022-08-27T17:41:33.827Z,26.60
2022-08-27T17:43:35.812Z,26.60
2022-08-27T17:45:37.606Z,26.60
2022-08-27T17:47:39.394Z,26.50
2022-08-27T17:49:41.108Z,26.50
2022-08-27T17:51:44.693Z,26.50
2022-08-27T17:53:55.959Z,26.40
2022-08-27T17:56:01.706Z,26.40
2022-08-27T17:58:03.563Z,26.40
2022-08-27T18:00:06.565Z,26.40
2022-08-27T18:02:09.963Z,26.30
2022-08-27T18:04:11.942Z,26.30
2022-08-27T18:06:13.681Z,26.30
2022-08-27T18:08:15.553Z,26.30
2022-08-27T18:10:23.761Z,26.30
2022-08-27T18:12:26.541Z,26.30
2022-08-27T18:14:28.252Z,26.30
2022-08-27T18:16:30.207Z,26.20
2022-08-27T18:18:32.210Z,26.20
2022-08-27T18:20:34.248Z,26.20
2022-08-27T18:22:40.735Z,26.20
2022-08-27T18:24:42.803Z,26.20
2022-08-27T18:26:45.295Z,26.20
2022-08-27T18:28:47.725Z,26.30
2022-08-27T18:30:50.510Z,26.30
2022-08-27T18:32:52.916Z,26.30
2022-08-27T18:34:56.284Z,26.30
